Kajaani Airport


Codes: EFKI/KAJ
Name: Kajaani Airport
City: Kajaani
Country: Finland
Elevation: 483 ft.
Wikipedia:

Photos at Kajaani Airport


   Photos courtesy of SpottingLog. You can add your own sightings and photos by signing up for a free trial today.



No photos found.

Weather at Kajaani Airport


Time (UTC)DescriptionTempratureWindCloud coverageVisibilityPressureHumidity
15-Apr-2024 18:00Light Snow3°C7 mph, N100%120m996hPa81%
15-Apr-2024 21:00Light Snow2°C7 mph, N100%46m996hPa87%
16-Apr-2024 00:00Light Snow1°C7 mph, N100%31m997hPa93%
16-Apr-2024 03:00Light Snow1°C7 mph, N100%145m997hPa98%
16-Apr-2024 06:00Overcast Clouds1°C9 mph, NE100%10000m998hPa94%
16-Apr-2024 09:00Overcast Clouds1°C11 mph, NE100%10000m999hPa81%
16-Apr-2024 12:00Overcast Clouds1°C11 mph, NE100%10000m1001hPa84%
16-Apr-2024 15:00Light Snow-1°C11 mph, NE100%431m1001hPa93%
16-Apr-2024 18:00Light Snow-3°C11 mph, NE100%256m1003hPa94%
16-Apr-2024 21:00Light Snow-5°C11 mph, NE100%193m1004hPa94%
17-Apr-2024 00:00Light Snow-6°C11 mph, NE100%230m1004hPa93%
17-Apr-2024 03:00Light Snow-7°C13 mph, NE100%223m1005hPa93%
17-Apr-2024 06:00Light Snow-7°C11 mph, NE100%2714m1006hPa90%
17-Apr-2024 09:00Light Snow-6°C13 mph, NE100%10000m1007hPa77%
17-Apr-2024 12:00Overcast Clouds-4°C13 mph, NE100%10000m1007hPa72%
17-Apr-2024 15:00Light Snow-5°C11 mph, NE100%6078m1009hPa80%
17-Apr-2024 18:00Light Snow-7°C11 mph, NE100%1220m1010hPa89%
17-Apr-2024 21:00Light Snow-8°C9 mph, NE100%498m1012hPa91%
18-Apr-2024 00:00Light Snow-8°C9 mph, NE100%2070m1013hPa88%
18-Apr-2024 03:00Light Snow-9°C9 mph, NE100%1240m1015hPa89%
18-Apr-2024 06:00Overcast Clouds-8°C9 mph, NE100%10000m1016hPa79%
18-Apr-2024 09:00Light Snow-6°C9 mph, NE100%10000m1017hPa78%
18-Apr-2024 12:00Light Snow-4°C9 mph, NE100%10000m1018hPa73%
18-Apr-2024 15:00Light Snow-4°C9 mph, NE100%10000m1019hPa78%
18-Apr-2024 18:00Overcast Clouds-6°C7 mph, NE100%10000m1020hPa87%
18-Apr-2024 21:00Broken Clouds-9°C7 mph, NE72%10000m1020hPa96%
19-Apr-2024 00:00Broken Clouds-11°C7 mph, E57%10000m1020hPa92%
19-Apr-2024 03:00Few Clouds-12°C9 mph, NE18%10000m1019hPa92%
19-Apr-2024 06:00Broken Clouds-9°C11 mph, NE56%10000m1018hPa80%
19-Apr-2024 09:00Overcast Clouds-6°C13 mph, NE100%10000m1016hPa74%
19-Apr-2024 12:00Overcast Clouds-4°C13 mph, NE100%10000m1013hPa76%
19-Apr-2024 15:00Overcast Clouds-5°C13 mph, NE100%10000m1012hPa79%
19-Apr-2024 18:00Overcast Clouds-7°C13 mph, NE100%10000m1010hPa82%
19-Apr-2024 21:00Light Snow-8°C13 mph, NE100%3943m1007hPa85%
20-Apr-2024 00:00Light Snow-8°C13 mph, NE100%184m1004hPa92%
20-Apr-2024 03:00Snow-9°C13 mph, NE100%172m1002hPa93%
20-Apr-2024 06:00Light Snow-8°C11 mph, NE100%212m1001hPa92%
20-Apr-2024 09:00Light Snow-6°C13 mph, N100%514m1001hPa86%
20-Apr-2024 12:00Light Snow-5°C9 mph, NW100%748m1002hPa87%
20-Apr-2024 15:00Light Snow-4°C9 mph, NW100%1082m1003hPa91%